sensor_id;sensor_type;location;lat;lon;timestamp;P1;durP1;ratioP1;P2;durP2;ratioP2
19235;SDS011;9752;54.270;12.470;2023-03-08T00:03:13;16.13;;;14.90;;
19235;SDS011;9752;54.270;12.470;2023-03-08T00:08:17;16.77;;;15.70;;
19235;SDS011;9752;54.270;12.470;2023-03-08T00:13:19;16.07;;;15.33;;
19235;SDS011;9752;54.270;12.470;2023-03-08T00:18:20;17.13;;;16.33;;
19235;SDS011;9752;54.270;12.470;2023-03-08T00:23:23;17.17;;;16.10;;
19235;SDS011;9752;54.270;12.470;2023-03-08T00:28:25;17.43;;;16.20;;
19235;SDS011;9752;54.270;12.470;2023-03-08T00:33:28;15.93;;;15.23;;
19235;SDS011;9752;54.270;12.470;2023-03-08T00:38:34;16.37;;;15.60;;
19235;SDS011;9752;54.270;12.470;2023-03-08T00:43:36;16.20;;;15.37;;
19235;SDS011;9752;54.270;12.470;2023-03-08T00:48:38;17.87;;;16.90;;
19235;SDS011;9752;54.270;12.470;2023-03-08T00:53:42;17.00;;;16.17;;
19235;SDS011;9752;54.270;12.470;2023-03-08T00:58:44;17.00;;;16.27;;
19235;SDS011;9752;54.270;12.470;2023-03-08T01:03:48;17.77;;;16.10;;
19235;SDS011;9752;54.270;12.470;2023-03-08T01:08:51;16.23;;;15.53;;
19235;SDS011;9752;54.270;12.470;2023-03-08T01:13:53;16.57;;;15.80;;
19235;SDS011;9752;54.270;12.470;2023-03-08T01:18:55;17.53;;;16.53;;
19235;SDS011;9752;54.270;12.470;2023-03-08T01:23:58;17.77;;;16.83;;
19235;SDS011;9752;54.270;12.470;2023-03-08T01:29:01;17.37;;;16.40;;
19235;SDS011;9752;54.270;12.470;2023-03-08T01:34:03;17.33;;;16.43;;
19235;SDS011;9752;54.270;12.470;2023-03-08T01:39:06;16.50;;;15.50;;
19235;SDS011;9752;54.270;12.470;2023-03-08T01:44:10;16.10;;;15.20;;
19235;SDS011;9752;54.270;12.470;2023-03-08T01:49:16;16.23;;;15.20;;
19235;SDS011;9752;54.270;12.470;2023-03-08T01:54:24;17.00;;;16.00;;
19235;SDS011;9752;54.270;12.470;2023-03-08T01:59:29;17.00;;;16.00;;
19235;SDS011;9752;54.270;12.470;2023-03-08T02:04:33;16.87;;;15.87;;
19235;SDS011;9752;54.270;12.470;2023-03-08T02:09:37;15.53;;;14.83;;
19235;SDS011;9752;54.270;12.470;2023-03-08T02:14:39;16.53;;;15.10;;
19235;SDS011;9752;54.270;12.470;2023-03-08T02:19:44;16.00;;;15.10;;
19235;SDS011;9752;54.270;12.470;2023-03-08T02:24:52;15.90;;;15.00;;
19235;SDS011;9752;54.270;12.470;2023-03-08T02:29:54;16.33;;;15.30;;
19235;SDS011;9752;54.270;12.470;2023-03-08T02:34:56;16.67;;;15.37;;
19235;SDS011;9752;54.270;12.470;2023-03-08T02:39:59;15.80;;;14.63;;
19235;SDS011;9752;54.270;12.470;2023-03-08T02:45:01;15.07;;;14.20;;
19235;SDS011;9752;54.270;12.470;2023-03-08T02:50:02;13.87;;;12.97;;
19235;SDS011;9752;54.270;12.470;2023-03-08T02:55:07;12.83;;;11.83;;
19235;SDS011;9752;54.270;12.470;2023-03-08T03:00:10;12.97;;;11.77;;
19235;SDS011;9752;54.270;12.470;2023-03-08T03:05:12;11.10;;;10.50;;
19235;SDS011;9752;54.270;12.470;2023-03-08T03:10:17;11.27;;;10.20;;
19235;SDS011;9752;54.270;12.470;2023-03-08T03:15:19;10.27;;;9.30;;
19235;SDS011;9752;54.270;12.470;2023-03-08T03:20:25;10.90;;;9.83;;
19235;SDS011;9752;54.270;12.470;2023-03-08T03:25:28;9.03;;;8.33;;
19235;SDS011;9752;54.270;12.470;2023-03-08T03:30:30;10.50;;;9.60;;
19235;SDS011;9752;54.270;12.470;2023-03-08T03:35:34;10.30;;;8.80;;
19235;SDS011;9752;54.270;12.470;2023-03-08T03:40:40;7.87;;;7.37;;
19235;SDS011;9752;54.270;12.470;2023-03-08T03:45:41;8.70;;;7.73;;
19235;SDS011;9752;54.270;12.470;2023-03-08T03:50:43;9.57;;;8.57;;
19235;SDS011;9752;54.270;12.470;2023-03-08T03:55:49;9.50;;;8.53;;
19235;SDS011;9752;54.270;12.470;2023-03-08T04:00:51;9.13;;;8.43;;
19235;SDS011;9752;54.270;12.470;2023-03-08T04:06:06;9.80;;;8.80;;
19235;SDS011;9752;54.270;12.470;2023-03-08T04:11:13;10.20;;;9.30;;
19235;SDS011;9752;54.270;12.470;2023-03-08T04:16:17;12.33;;;8.97;;
19235;SDS011;9752;54.270;12.470;2023-03-08T04:21:21;10.90;;;9.83;;
19235;SDS011;9752;54.270;12.470;2023-03-08T04:26:25;9.60;;;8.83;;
19235;SDS011;9752;54.270;12.470;2023-03-08T04:31:27;10.57;;;9.60;;
19235;SDS011;9752;54.270;12.470;2023-03-08T04:36:33;9.53;;;8.60;;
19235;SDS011;9752;54.270;12.470;2023-03-08T04:41:36;17.77;;;9.93;;
19235;SDS011;9752;54.270;12.470;2023-03-08T04:46:54;11.27;;;9.77;;
19235;SDS011;9752;54.270;12.470;2023-03-08T04:52:06;15.63;;;10.23;;
19235;SDS011;9752;54.270;12.470;2023-03-08T04:57:12;12.70;;;9.80;;
19235;SDS011;9752;54.270;12.470;2023-03-08T05:02:15;11.07;;;10.13;;
19235;SDS011;9752;54.270;12.470;2023-03-08T05:07:19;15.20;;;10.57;;
19235;SDS011;9752;54.270;12.470;2023-03-08T05:12:24;9.93;;;9.07;;
19235;SDS011;9752;54.270;12.470;2023-03-08T05:17:30;17.13;;;9.63;;
19235;SDS011;9752;54.270;12.470;2023-03-08T05:22:32;12.80;;;10.20;;
19235;SDS011;9752;54.270;12.470;2023-03-08T05:27:35;12.07;;;10.87;;
19235;SDS011;9752;54.270;12.470;2023-03-08T05:32:39;15.27;;;10.70;;
19235;SDS011;9752;54.270;12.470;2023-03-08T05:37:41;11.80;;;10.50;;
19235;SDS011;9752;54.270;12.470;2023-03-08T05:42:46;13.47;;;11.43;;
19235;SDS011;9752;54.270;12.470;2023-03-08T05:47:49;14.33;;;11.30;;
19235;SDS011;9752;54.270;12.470;2023-03-08T05:52:51;13.73;;;11.37;;
19235;SDS011;9752;54.270;12.470;2023-03-08T05:57:58;14.97;;;12.27;;
19235;SDS011;9752;54.270;12.470;2023-03-08T06:03:01;17.10;;;14.30;;
19235;SDS011;9752;54.270;12.470;2023-03-08T06:08:04;20.43;;;13.33;;
19235;SDS011;9752;54.270;12.470;2023-03-08T06:13:08;23.17;;;13.10;;
19235;SDS011;9752;54.270;12.470;2023-03-08T06:18:10;18.37;;;12.83;;
19235;SDS011;9752;54.270;12.470;2023-03-08T06:23:12;15.83;;;12.17;;
19235;SDS011;9752;54.270;12.470;2023-03-08T06:28:15;16.97;;;12.43;;
19235;SDS011;9752;54.270;12.470;2023-03-08T06:33:18;13.97;;;11.93;;
19235;SDS011;9752;54.270;12.470;2023-03-08T06:38:20;15.50;;;12.57;;
19235;SDS011;9752;54.270;12.470;2023-03-08T06:43:24;12.67;;;11.37;;
19235;SDS011;9752;54.270;12.470;2023-03-08T06:48:26;20.87;;;13.30;;
19235;SDS011;9752;54.270;12.470;2023-03-08T06:53:27;18.73;;;13.07;;
19235;SDS011;9752;54.270;12.470;2023-03-08T06:58:35;14.67;;;13.10;;
19235;SDS011;9752;54.270;12.470;2023-03-08T07:03:37;13.70;;;12.40;;
19235;SDS011;9752;54.270;12.470;2023-03-08T07:08:39;14.20;;;12.80;;
19235;SDS011;9752;54.270;12.470;2023-03-08T07:13:43;13.53;;;12.23;;
19235;SDS011;9752;54.270;12.470;2023-03-08T07:18:44;16.37;;;13.47;;
19235;SDS011;9752;54.270;12.470;2023-03-08T07:23:46;17.17;;;13.47;;
19235;SDS011;9752;54.270;12.470;2023-03-08T07:28:49;14.17;;;12.83;;
19235;SDS011;9752;54.270;12.470;2023-03-08T07:33:51;15.53;;;13.80;;
19235;SDS011;9752;54.270;12.470;2023-03-08T07:38:53;19.60;;;13.87;;
19235;SDS011;9752;54.270;12.470;2023-03-08T07:43:56;17.13;;;15.00;;
19235;SDS011;9752;54.270;12.470;2023-03-08T07:48:59;17.60;;;14.37;;
19235;SDS011;9752;54.270;12.470;2023-03-08T07:54:01;19.43;;;15.90;;
19235;SDS011;9752;54.270;12.470;2023-03-08T07:59:05;17.43;;;15.10;;
19235;SDS011;9752;54.270;12.470;2023-03-08T08:04:06;19.03;;;16.90;;
19235;SDS011;9752;54.270;12.470;2023-03-08T08:09:09;20.17;;;16.83;;
19235;SDS011;9752;54.270;12.470;2023-03-08T08:14:14;19.70;;;17.83;;
19235;SDS011;9752;54.270;12.470;2023-03-08T08:19:16;20.07;;;18.40;;
19235;SDS011;9752;54.270;12.470;2023-03-08T08:24:18;19.87;;;18.07;;
19235;SDS011;9752;54.270;12.470;2023-03-08T08:29:21;19.73;;;17.67;;
19235;SDS011;9752;54.270;12.470;2023-03-08T08:34:23;20.40;;;18.00;;
19235;SDS011;9752;54.270;12.470;2023-03-08T08:39:24;19.73;;;17.97;;
19235;SDS011;9752;54.270;12.470;2023-03-08T08:44:27;20.07;;;18.27;;
19235;SDS011;9752;54.270;12.470;2023-03-08T08:49:29;20.50;;;18.80;;
19235;SDS011;9752;54.270;12.470;2023-03-08T08:54:31;23.20;;;20.90;;
19235;SDS011;9752;54.270;12.470;2023-03-08T08:59:34;22.60;;;20.33;;
19235;SDS011;9752;54.270;12.470;2023-03-08T09:04:36;23.33;;;21.23;;
19235;SDS011;9752;54.270;12.470;2023-03-08T09:09:38;24.00;;;21.60;;
19235;SDS011;9752;54.270;12.470;2023-03-08T09:14:41;23.50;;;21.23;;
19235;SDS011;9752;54.270;12.470;2023-03-08T09:19:43;30.77;;;22.77;;
19235;SDS011;9752;54.270;12.470;2023-03-08T09:24:44;22.83;;;20.73;;
19235;SDS011;9752;54.270;12.470;2023-03-08T09:29:50;24.80;;;22.37;;
19235;SDS011;9752;54.270;12.470;2023-03-08T09:34:52;25.60;;;22.97;;
19235;SDS011;9752;54.270;12.470;2023-03-08T09:39:54;24.03;;;21.83;;
19235;SDS011;9752;54.270;12.470;2023-03-08T09:45:00;25.70;;;23.47;;
19235;SDS011;9752;54.270;12.470;2023-03-08T09:50:23;21.97;;;20.00;;
19235;SDS011;9752;54.270;12.470;2023-03-08T09:55:33;20.97;;;19.23;;
19235;SDS011;9752;54.270;12.470;2023-03-08T10:00:40;19.80;;;18.40;;
19235;SDS011;9752;54.270;12.470;2023-03-08T10:05:42;17.80;;;16.47;;
19235;SDS011;9752;54.270;12.470;2023-03-08T10:10:51;17.67;;;16.27;;
19235;SDS011;9752;54.270;12.470;2023-03-08T10:16:10;18.57;;;17.17;;
19235;SDS011;9752;54.270;12.470;2023-03-08T10:21:16;16.47;;;14.83;;
19235;SDS011;9752;54.270;12.470;2023-03-08T10:26:20;15.47;;;14.37;;
19235;SDS011;9752;54.270;12.470;2023-03-08T10:31:23;16.27;;;15.27;;
19235;SDS011;9752;54.270;12.470;2023-03-08T10:36:26;17.27;;;16.00;;
19235;SDS011;9752;54.270;12.470;2023-03-08T10:41:28;15.67;;;14.63;;
19235;SDS011;9752;54.270;12.470;2023-03-08T10:46:33;18.30;;;16.77;;
19235;SDS011;9752;54.270;12.470;2023-03-08T10:51:52;18.73;;;17.23;;
19235;SDS011;9752;54.270;12.470;2023-03-08T10:56:56;17.80;;;16.20;;
19235;SDS011;9752;54.270;12.470;2023-03-08T11:02:01;17.20;;;15.83;;
19235;SDS011;9752;54.270;12.470;2023-03-08T11:07:20;17.57;;;16.27;;
19235;SDS011;9752;54.270;12.470;2023-03-08T11:12:24;17.23;;;16.13;;
19235;SDS011;9752;54.270;12.470;2023-03-08T11:17:29;16.03;;;14.97;;
19235;SDS011;9752;54.270;12.470;2023-03-08T11:22:43;15.97;;;14.83;;
19235;SDS011;9752;54.270;12.470;2023-03-08T11:28:08;16.97;;;15.87;;
19235;SDS011;9752;54.270;12.470;2023-03-08T11:38:57;15.60;;;14.70;;
19235;SDS011;9752;54.270;12.470;2023-03-08T11:44:08;15.83;;;14.73;;
19235;SDS011;9752;54.270;12.470;2023-03-08T11:49:32;16.13;;;15.03;;
19235;SDS011;9752;54.270;12.470;2023-03-08T11:54:50;16.77;;;15.67;;
19235;SDS011;9752;54.270;12.470;2023-03-08T12:00:04;16.50;;;15.20;;
19235;SDS011;9752;54.270;12.470;2023-03-08T12:05:20;16.43;;;15.23;;
19235;SDS011;9752;54.270;12.470;2023-03-08T12:10:29;16.40;;;15.40;;
19235;SDS011;9752;54.270;12.470;2023-03-08T12:15:38;16.23;;;15.13;;
19235;SDS011;9752;54.270;12.470;2023-03-08T12:20:48;16.23;;;15.23;;
19235;SDS011;9752;54.270;12.470;2023-03-08T12:25:53;16.40;;;15.30;;
19235;SDS011;9752;54.270;12.470;2023-03-08T12:31:02;18.60;;;16.97;;
19235;SDS011;9752;54.270;12.470;2023-03-08T12:36:20;17.87;;;16.53;;
19235;SDS011;9752;54.270;12.470;2023-03-08T12:41:23;19.07;;;17.57;;
19235;SDS011;9752;54.270;12.470;2023-03-08T12:46:26;18.20;;;16.77;;
19235;SDS011;9752;54.270;12.470;2023-03-08T12:51:31;17.93;;;16.80;;
19235;SDS011;9752;54.270;12.470;2023-03-08T12:56:34;18.30;;;17.00;;
19235;SDS011;9752;54.270;12.470;2023-03-08T13:01:39;19.23;;;17.87;;
19235;SDS011;9752;54.270;12.470;2023-03-08T13:12:33;19.63;;;17.93;;
19235;SDS011;9752;54.270;12.470;2023-03-08T13:17:40;20.30;;;18.87;;
19235;SDS011;9752;54.270;12.470;2023-03-08T13:22:52;21.53;;;19.90;;
19235;SDS011;9752;54.270;12.470;2023-03-08T13:28:08;20.43;;;18.73;;
19235;SDS011;9752;54.270;12.470;2023-03-08T13:33:12;20.57;;;18.83;;
19235;SDS011;9752;54.270;12.470;2023-03-08T13:38:18;20.07;;;18.50;;
19235;SDS011;9752;54.270;12.470;2023-03-08T13:43:24;20.10;;;18.60;;
19235;SDS011;9752;54.270;12.470;2023-03-08T13:48:28;20.83;;;19.30;;
19235;SDS011;9752;54.270;12.470;2023-03-08T13:53:35;22.03;;;20.43;;
19235;SDS011;9752;54.270;12.470;2023-03-08T13:58:43;21.67;;;19.87;;
19235;SDS011;9752;54.270;12.470;2023-03-08T14:03:49;22.40;;;20.60;;
19235;SDS011;9752;54.270;12.470;2023-03-08T14:08:51;22.10;;;20.17;;
19235;SDS011;9752;54.270;12.470;2023-03-08T14:13:55;22.67;;;20.67;;
19235;SDS011;9752;54.270;12.470;2023-03-08T14:18:58;21.07;;;19.10;;
19235;SDS011;9752;54.270;12.470;2023-03-08T14:24:15;23.27;;;21.03;;
19235;SDS011;9752;54.270;12.470;2023-03-08T14:29:21;21.20;;;19.50;;
19235;SDS011;9752;54.270;12.470;2023-03-08T14:34:25;22.00;;;19.97;;
19235;SDS011;9752;54.270;12.470;2023-03-08T14:39:29;23.10;;;20.80;;
19235;SDS011;9752;54.270;12.470;2023-03-08T14:44:34;21.20;;;19.23;;
19235;SDS011;9752;54.270;12.470;2023-03-08T14:49:36;21.93;;;19.70;;
19235;SDS011;9752;54.270;12.470;2023-03-08T14:54:38;21.30;;;19.40;;
19235;SDS011;9752;54.270;12.470;2023-03-08T14:59:42;20.20;;;18.53;;
19235;SDS011;9752;54.270;12.470;2023-03-08T15:04:44;19.87;;;18.20;;
19235;SDS011;9752;54.270;12.470;2023-03-08T15:09:46;18.53;;;17.20;;
19235;SDS011;9752;54.270;12.470;2023-03-08T15:14:50;20.87;;;18.93;;
19235;SDS011;9752;54.270;12.470;2023-03-08T15:19:52;20.37;;;18.47;;
19235;SDS011;9752;54.270;12.470;2023-03-08T15:24:53;19.93;;;18.13;;
19235;SDS011;9752;54.270;12.470;2023-03-08T15:29:56;22.80;;;20.43;;
19235;SDS011;9752;54.270;12.470;2023-03-08T15:34:58;20.97;;;19.17;;
19235;SDS011;9752;54.270;12.470;2023-03-08T15:40:00;19.60;;;17.90;;
19235;SDS011;9752;54.270;12.470;2023-03-08T15:45:04;20.97;;;18.53;;
19235;SDS011;9752;54.270;12.470;2023-03-08T15:50:11;19.97;;;18.17;;
19235;SDS011;9752;54.270;12.470;2023-03-08T15:55:14;19.60;;;18.03;;
19235;SDS011;9752;54.270;12.470;2023-03-08T16:00:18;20.80;;;19.00;;
19235;SDS011;9752;54.270;12.470;2023-03-08T16:05:22;20.77;;;19.17;;
19235;SDS011;9752;54.270;12.470;2023-03-08T16:10:25;21.30;;;19.50;;
19235;SDS011;9752;54.270;12.470;2023-03-08T16:15:30;19.83;;;18.40;;
19235;SDS011;9752;54.270;12.470;2023-03-08T16:20:32;18.90;;;17.40;;
19235;SDS011;9752;54.270;12.470;2023-03-08T16:25:33;20.03;;;18.37;;
19235;SDS011;9752;54.270;12.470;2023-03-08T16:30:36;20.33;;;18.73;;
19235;SDS011;9752;54.270;12.470;2023-03-08T16:35:40;20.43;;;18.80;;
19235;SDS011;9752;54.270;12.470;2023-03-08T16:40:48;20.53;;;18.93;;
19235;SDS011;9752;54.270;12.470;2023-03-08T16:45:55;21.53;;;19.60;;
19235;SDS011;9752;54.270;12.470;2023-03-08T16:50:58;23.30;;;21.53;;
19235;SDS011;9752;54.270;12.470;2023-03-08T16:56:00;23.17;;;20.90;;
19235;SDS011;9752;54.270;12.470;2023-03-08T17:01:10;23.97;;;21.57;;
19235;SDS011;9752;54.270;12.470;2023-03-08T17:06:13;22.67;;;20.90;;
19235;SDS011;9752;54.270;12.470;2023-03-08T17:11:16;23.97;;;21.63;;
19235;SDS011;9752;54.270;12.470;2023-03-08T17:16:21;24.03;;;21.63;;
19235;SDS011;9752;54.270;12.470;2023-03-08T17:21:24;22.33;;;20.23;;
19235;SDS011;9752;54.270;12.470;2023-03-08T17:26:26;21.90;;;19.70;;
19235;SDS011;9752;54.270;12.470;2023-03-08T17:31:29;19.30;;;17.40;;
19235;SDS011;9752;54.270;12.470;2023-03-08T17:36:31;17.57;;;15.87;;
19235;SDS011;9752;54.270;12.470;2023-03-08T17:41:32;16.77;;;15.20;;
19235;SDS011;9752;54.270;12.470;2023-03-08T17:46:36;17.53;;;15.60;;
19235;SDS011;9752;54.270;12.470;2023-03-08T17:51:38;15.90;;;14.23;;
19235;SDS011;9752;54.270;12.470;2023-03-08T17:56:41;20.93;;;14.60;;
19235;SDS011;9752;54.270;12.470;2023-03-08T18:01:44;16.60;;;14.17;;
19235;SDS011;9752;54.270;12.470;2023-03-08T18:06:46;15.70;;;13.93;;
19235;SDS011;9752;54.270;12.470;2023-03-08T18:11:48;15.17;;;13.63;;
19235;SDS011;9752;54.270;12.470;2023-03-08T18:16:51;14.37;;;12.63;;
19235;SDS011;9752;54.270;12.470;2023-03-08T18:21:53;14.53;;;13.00;;
19235;SDS011;9752;54.270;12.470;2023-03-08T18:26:56;17.47;;;14.00;;
19235;SDS011;9752;54.270;12.470;2023-03-08T18:31:59;14.47;;;12.90;;
19235;SDS011;9752;54.270;12.470;2023-03-08T18:37:01;13.30;;;11.87;;
19235;SDS011;9752;54.270;12.470;2023-03-08T18:42:04;14.73;;;13.23;;
19235;SDS011;9752;54.270;12.470;2023-03-08T18:47:07;13.67;;;12.27;;
19235;SDS011;9752;54.270;12.470;2023-03-08T18:52:09;18.80;;;13.47;;
19235;SDS011;9752;54.270;12.470;2023-03-08T18:57:11;15.90;;;12.33;;
19235;SDS011;9752;54.270;12.470;2023-03-08T19:02:14;15.33;;;13.00;;
19235;SDS011;9752;54.270;12.470;2023-03-08T19:07:17;17.03;;;13.03;;
19235;SDS011;9752;54.270;12.470;2023-03-08T19:12:19;14.13;;;12.67;;
19235;SDS011;9752;54.270;12.470;2023-03-08T19:17:22;13.80;;;12.30;;
19235;SDS011;9752;54.270;12.470;2023-03-08T19:22:24;17.80;;;13.33;;
19235;SDS011;9752;54.270;12.470;2023-03-08T19:27:26;16.10;;;13.33;;
19235;SDS011;9752;54.270;12.470;2023-03-08T19:32:29;17.83;;;13.07;;
19235;SDS011;9752;54.270;12.470;2023-03-08T19:37:31;17.23;;;13.50;;
19235;SDS011;9752;54.270;12.470;2023-03-08T19:42:32;15.37;;;13.77;;
19235;SDS011;9752;54.270;12.470;2023-03-08T19:47:35;17.27;;;12.40;;
19235;SDS011;9752;54.270;12.470;2023-03-08T19:52:37;18.50;;;13.57;;
19235;SDS011;9752;54.270;12.470;2023-03-08T19:57:39;17.90;;;15.17;;
19235;SDS011;9752;54.270;12.470;2023-03-08T20:02:45;21.63;;;15.50;;
19235;SDS011;9752;54.270;12.470;2023-03-08T20:07:47;19.50;;;15.23;;
19235;SDS011;9752;54.270;12.470;2023-03-08T20:12:48;18.83;;;14.73;;
19235;SDS011;9752;54.270;12.470;2023-03-08T20:17:53;20.13;;;15.27;;
19235;SDS011;9752;54.270;12.470;2023-03-08T20:22:54;22.43;;;16.77;;
19235;SDS011;9752;54.270;12.470;2023-03-08T20:27:56;23.93;;;16.93;;
19235;SDS011;9752;54.270;12.470;2023-03-08T20:32:59;25.57;;;16.93;;
19235;SDS011;9752;54.270;12.470;2023-03-08T20:38:01;25.10;;;16.77;;
19235;SDS011;9752;54.270;12.470;2023-03-08T20:43:02;21.43;;;16.67;;
19235;SDS011;9752;54.270;12.470;2023-03-08T20:48:06;26.97;;;18.87;;
19235;SDS011;9752;54.270;12.470;2023-03-08T20:53:07;23.93;;;17.53;;
19235;SDS011;9752;54.270;12.470;2023-03-08T20:58:09;33.17;;;18.73;;
19235;SDS011;9752;54.270;12.470;2023-03-08T21:03:12;23.97;;;16.67;;
19235;SDS011;9752;54.270;12.470;2023-03-08T21:08:14;26.33;;;19.13;;
19235;SDS011;9752;54.270;12.470;2023-03-08T21:13:16;30.70;;;19.63;;
19235;SDS011;9752;54.270;12.470;2023-03-08T21:18:19;33.23;;;22.13;;
19235;SDS011;9752;54.270;12.470;2023-03-08T21:23:20;36.43;;;22.67;;
19235;SDS011;9752;54.270;12.470;2023-03-08T21:28:23;32.40;;;21.50;;
19235;SDS011;9752;54.270;12.470;2023-03-08T21:33:26;38.30;;;22.40;;
19235;SDS011;9752;54.270;12.470;2023-03-08T21:38:27;32.87;;;20.77;;
19235;SDS011;9752;54.270;12.470;2023-03-08T21:43:29;37.87;;;23.40;;
19235;SDS011;9752;54.270;12.470;2023-03-08T21:48:32;44.03;;;24.40;;
19235;SDS011;9752;54.270;12.470;2023-03-08T21:53:34;40.87;;;24.00;;
19235;SDS011;9752;54.270;12.470;2023-03-08T21:58:36;44.83;;;26.17;;
19235;SDS011;9752;54.270;12.470;2023-03-08T22:03:40;39.83;;;24.67;;
19235;SDS011;9752;54.270;12.470;2023-03-08T22:08:41;42.27;;;25.70;;
19235;SDS011;9752;54.270;12.470;2023-03-08T22:13:45;42.37;;;24.83;;
19235;SDS011;9752;54.270;12.470;2023-03-08T22:18:51;37.87;;;23.60;;
19235;SDS011;9752;54.270;12.470;2023-03-08T22:23:54;41.47;;;26.77;;
19235;SDS011;9752;54.270;12.470;2023-03-08T22:28:57;43.00;;;25.67;;
19235;SDS011;9752;54.270;12.470;2023-03-08T22:34:01;46.40;;;28.43;;
19235;SDS011;9752;54.270;12.470;2023-03-08T22:39:02;42.53;;;25.17;;
19235;SDS011;9752;54.270;12.470;2023-03-08T22:44:04;44.03;;;27.30;;
19235;SDS011;9752;54.270;12.470;2023-03-08T22:49:07;39.90;;;24.67;;
19235;SDS011;9752;54.270;12.470;2023-03-08T22:54:12;48.07;;;24.83;;
19235;SDS011;9752;54.270;12.470;2023-03-08T22:59:15;46.20;;;26.27;;
19235;SDS011;9752;54.270;12.470;2023-03-08T23:04:19;36.33;;;24.10;;
19235;SDS011;9752;54.270;12.470;2023-03-08T23:09:21;35.07;;;22.87;;
19235;SDS011;9752;54.270;12.470;2023-03-08T23:14:23;39.53;;;22.00;;
19235;SDS011;9752;54.270;12.470;2023-03-08T23:19:26;42.03;;;22.63;;
19235;SDS011;9752;54.270;12.470;2023-03-08T23:24:28;33.50;;;21.53;;
19235;SDS011;9752;54.270;12.470;2023-03-08T23:29:29;37.77;;;22.07;;
19235;SDS011;9752;54.270;12.470;2023-03-08T23:34:32;34.67;;;21.20;;
19235;SDS011;9752;54.270;12.470;2023-03-08T23:39:35;36.67;;;21.43;;
19235;SDS011;9752;54.270;12.470;2023-03-08T23:44:36;36.03;;;20.73;;
19235;SDS011;9752;54.270;12.470;2023-03-08T23:49:39;42.20;;;22.47;;
19235;SDS011;9752;54.270;12.470;2023-03-08T23:54:41;35.33;;;20.80;;
19235;SDS011;9752;54.270;12.470;2023-03-08T23:59:43;41.53;;;21.67;;
